createdAt,value
2017-11-27T00:00:57.250Z,88.69
2017-11-27T00:03:23.509Z,88.77
2017-11-27T00:05:49.678Z,88.07
2017-11-27T00:08:15.863Z,88.12
2017-11-27T00:10:41.970Z,88.52
2017-11-27T00:13:08.164Z,88.46
2017-11-27T00:15:34.539Z,88.12
2017-11-27T00:18:00.714Z,88.18
2017-11-27T00:20:26.845Z,88.02
2017-11-27T00:22:52.981Z,88.86
2017-11-27T00:25:19.105Z,89.05
2017-11-27T00:27:45.238Z,88.10
2017-11-27T00:30:11.593Z,87.86
2017-11-27T00:32:37.845Z,87.53
2017-11-27T00:35:04.414Z,87.68
2017-11-27T00:37:30.657Z,87.76
2017-11-27T00:39:56.867Z,87.85
2017-11-27T00:42:23.092Z,88.17
2017-11-27T00:44:49.249Z,87.81
2017-11-27T00:47:15.405Z,87.74
2017-11-27T00:49:41.564Z,87.42
2017-11-27T00:52:07.664Z,87.27
2017-11-27T00:54:33.895Z,87.39
2017-11-27T00:57:00.115Z,87.27
2017-11-27T00:59:26.360Z,87.28
2017-11-27T01:01:52.558Z,87.29
2017-11-27T01:04:18.759Z,86.93
2017-11-27T01:06:44.973Z,87.03
2017-11-27T01:09:11.058Z,87.07
2017-11-27T01:11:37.258Z,86.82
2017-11-27T01:14:03.439Z,86.85
2017-11-27T01:16:29.630Z,86.73
2017-11-27T01:18:55.713Z,86.86
2017-11-27T01:21:21.837Z,87.03
2017-11-27T01:23:48.186Z,87.26
2017-11-27T01:26:14.350Z,87.35
2017-11-27T01:28:40.493Z,87.28
2017-11-27T01:31:06.716Z,87.36
2017-11-27T01:33:32.901Z,87.07
2017-11-27T01:35:59.100Z,87.27
2017-11-27T01:38:25.266Z,87.18
2017-11-27T01:40:51.419Z,87.30
2017-11-27T01:43:17.562Z,87.35
2017-11-27T01:45:43.743Z,87.20
2017-11-27T01:48:09.844Z,87.20
2017-11-27T01:50:36.417Z,87.31
2017-11-27T01:53:02.568Z,87.24
2017-11-27T01:55:28.699Z,87.34
2017-11-27T01:57:54.900Z,87.30
2017-11-27T02:00:21.111Z,87.44
2017-11-27T02:02:47.291Z,87.62
2017-11-27T02:05:13.771Z,87.66
2017-11-27T02:07:39.991Z,87.59
2017-11-27T02:10:06.274Z,87.63
2017-11-27T02:12:32.469Z,87.64
2017-11-27T02:14:58.582Z,87.36
2017-11-27T02:17:24.947Z,87.29
2017-11-27T02:19:51.057Z,87.31
2017-11-27T02:22:17.267Z,87.38
2017-11-27T02:24:43.481Z,87.40
2017-11-27T02:27:09.685Z,87.09
2017-11-27T02:29:35.817Z,87.19
2017-11-27T02:32:01.897Z,87.18
2017-11-27T02:34:28.010Z,87.40
2017-11-27T02:36:54.139Z,87.29
2017-11-27T02:39:20.271Z,87.28
2017-11-27T02:41:46.489Z,86.96
2017-11-27T02:44:12.696Z,87.15
2017-11-27T02:46:38.815Z,87.04
2017-11-27T02:49:04.990Z,87.14
2017-11-27T02:51:31.116Z,86.87
2017-11-27T02:53:57.256Z,87.02
2017-11-27T02:56:33.357Z,87.17
2017-11-27T02:58:59.446Z,87.03
2017-11-27T03:01:25.586Z,86.83
2017-11-27T03:03:51.826Z,87.04
2017-11-27T03:06:17.969Z,86.78
2017-11-27T03:08:44.253Z,86.82
2017-11-27T03:11:10.486Z,87.01
2017-11-27T03:13:36.675Z,86.86
2017-11-27T03:16:02.889Z,87.01
2017-11-27T03:18:28.983Z,86.76
2017-11-27T03:20:55.044Z,86.97
2017-11-27T03:23:21.246Z,86.85
2017-11-27T03:25:47.437Z,86.83
2017-11-27T03:28:13.617Z,87.10
2017-11-27T03:30:39.754Z,87.08
2017-11-27T03:33:05.946Z,87.05
2017-11-27T03:35:32.165Z,86.98
2017-11-27T03:37:58.342Z,86.88
2017-11-27T03:40:24.450Z,86.92
2017-11-27T03:42:50.605Z,87.04
2017-11-27T03:45:16.730Z,86.94
2017-11-27T03:47:42.869Z,87.10
2017-11-27T03:50:09.018Z,87.01
2017-11-27T03:52:35.366Z,87.04
2017-11-27T03:55:01.509Z,87.13
2017-11-27T03:57:27.670Z,87.10
2017-11-27T03:59:53.806Z,87.01
2017-11-27T04:02:19.938Z,87.25
2017-11-27T04:04:46.413Z,86.89
2017-11-27T04:07:12.513Z,87.23
2017-11-27T04:09:38.632Z,86.97
2017-11-27T04:12:04.787Z,87.37
2017-11-27T04:14:30.864Z,86.99
2017-11-27T04:16:57.010Z,87.03
2017-11-27T04:19:23.146Z,86.93
2017-11-27T04:21:50.557Z,86.96
2017-11-27T04:24:16.680Z,86.70
2017-11-27T04:26:42.778Z,86.67
2017-11-27T04:29:08.916Z,86.97
2017-11-27T04:31:35.029Z,86.82
2017-11-27T04:34:01.214Z,86.87
2017-11-27T04:36:27.249Z,86.46
2017-11-27T04:38:53.427Z,86.53
2017-11-27T04:41:19.549Z,85.83
2017-11-27T04:43:45.692Z,86.23
2017-11-27T04:46:11.820Z,85.82
2017-11-27T04:48:37.909Z,85.71
2017-11-27T04:51:04.009Z,85.40
2017-11-27T04:53:30.122Z,85.70
2017-11-27T04:55:56.222Z,85.63
2017-11-27T04:58:22.317Z,85.64
2017-11-27T05:00:48.785Z,85.79
2017-11-27T05:03:14.915Z,86.09
2017-11-27T05:05:41.050Z,86.01
2017-11-27T05:08:07.196Z,86.15
2017-11-27T05:10:33.303Z,86.52
2017-11-27T05:12:59.541Z,86.55
2017-11-27T05:15:25.754Z,86.71
2017-11-27T05:17:51.926Z,87.12
2017-11-27T05:20:18.030Z,86.85
2017-11-27T05:22:44.177Z,87.42
2017-11-27T05:25:10.270Z,87.29
2017-11-27T05:27:36.327Z,87.80
2017-11-27T05:30:02.468Z,87.91
2017-11-27T05:32:28.579Z,87.50
2017-11-27T05:34:54.694Z,87.78
2017-11-27T05:37:20.854Z,87.60
2017-11-27T05:39:46.994Z,87.53
2017-11-27T05:42:13.093Z,86.93
2017-11-27T05:44:39.273Z,87.06
2017-11-27T05:47:05.393Z,87.25
2017-11-27T05:49:31.516Z,86.81
2017-11-27T05:51:57.686Z,86.53
2017-11-27T05:54:24.175Z,86.99
2017-11-27T05:56:50.320Z,86.97
2017-11-27T05:59:16.457Z,86.66
2017-11-27T06:01:42.528Z,85.98
2017-11-27T06:04:08.592Z,85.83
2017-11-27T06:06:34.733Z,86.11
2017-11-27T06:09:00.801Z,86.32
2017-11-27T06:11:26.952Z,85.92
2017-11-27T06:13:53.041Z,85.96
2017-11-27T06:16:19.198Z,86.01
2017-11-27T06:18:45.297Z,85.80
2017-11-27T06:21:11.449Z,86.00
2017-11-27T06:23:37.620Z,85.62
2017-11-27T06:26:03.747Z,85.53
2017-11-27T06:28:29.907Z,85.32
2017-11-27T06:30:56.370Z,85.46
2017-11-27T06:33:22.686Z,84.94
2017-11-27T06:35:48.885Z,84.95
2017-11-27T06:38:15.114Z,84.29
2017-11-27T06:40:41.181Z,84.34
2017-11-27T06:43:07.285Z,84.80
2017-11-27T06:45:33.417Z,82.51
2017-11-27T06:47:59.502Z,82.25
2017-11-27T06:50:25.689Z,80.96
2017-11-27T06:52:51.795Z,80.15
2017-11-27T06:55:17.919Z,80.15
2017-11-27T06:57:44.085Z,80.33
2017-11-27T07:00:10.198Z,80.66
2017-11-27T07:02:36.424Z,80.88
2017-11-27T07:05:02.974Z,81.67
2017-11-27T07:07:29.182Z,81.76
2017-11-27T07:09:55.302Z,82.11
2017-11-27T07:12:21.453Z,82.36
2017-11-27T07:14:47.610Z,82.50
2017-11-27T07:17:13.742Z,82.61
2017-11-27T07:19:39.866Z,81.02
2017-11-27T07:22:05.957Z,81.50
2017-11-27T07:24:32.098Z,80.84
2017-11-27T07:26:58.800Z,81.16
2017-11-27T07:29:24.847Z,81.24
2017-11-27T07:31:50.966Z,81.41
2017-11-27T07:34:17.102Z,81.79
2017-11-27T07:36:43.244Z,81.74
2017-11-27T07:39:15.921Z,81.78
2017-11-27T07:41:41.970Z,81.92
2017-11-27T07:44:08.102Z,81.75
2017-11-27T07:46:34.234Z,82.01
2017-11-27T07:49:00.643Z,81.45
2017-11-27T07:51:26.746Z,80.91
2017-11-27T07:53:52.847Z,80.84
2017-11-27T07:56:18.971Z,81.45
2017-11-27T07:58:45.061Z,80.86
2017-11-27T08:01:11.181Z,80.50
2017-11-27T08:03:37.297Z,80.23
2017-11-27T08:06:03.492Z,80.51
2017-11-27T08:08:29.684Z,79.25
2017-11-27T08:10:55.817Z,78.73
2017-11-27T08:13:21.959Z,79.03
2017-11-27T08:15:48.098Z,79.05
2017-11-27T08:18:14.258Z,79.54
2017-11-27T08:20:40.363Z,79.20
2017-11-27T08:23:06.540Z,79.26
2017-11-27T08:25:32.654Z,79.58
2017-11-27T08:27:58.794Z,79.18
2017-11-27T08:30:24.927Z,79.21
2017-11-27T08:32:51.086Z,79.72
2017-11-27T08:35:17.204Z,79.62
2017-11-27T08:37:43.325Z,78.78
2017-11-27T08:40:09.566Z,79.43
2017-11-27T08:42:35.748Z,78.71
2017-11-27T08:45:02.261Z,79.91
2017-11-27T08:47:28.369Z,79.57
2017-11-27T08:49:54.506Z,79.98
2017-11-27T08:52:20.645Z,80.53
2017-11-27T08:54:46.790Z,80.42
2017-11-27T08:57:12.908Z,80.32
2017-11-27T08:59:39.021Z,80.02
2017-11-27T09:02:05.137Z,80.21
2017-11-27T09:04:31.253Z,79.67
2017-11-27T09:06:57.406Z,80.03
2017-11-27T09:09:23.530Z,80.09
2017-11-27T09:11:49.707Z,78.46
2017-11-27T09:14:15.785Z,78.65
2017-11-27T09:16:41.898Z,79.70
2017-11-27T09:19:08.036Z,78.48
2017-11-27T09:21:34.130Z,77.53
2017-11-27T09:24:00.210Z,77.77
2017-11-27T09:26:26.388Z,78.17
2017-11-27T09:28:52.485Z,77.58
2017-11-27T09:31:18.848Z,77.84
2017-11-27T09:33:44.977Z,77.77
2017-11-27T09:36:11.223Z,77.94
2017-11-27T09:38:37.328Z,77.68
2017-11-27T09:41:03.449Z,77.49
2017-11-27T09:43:29.579Z,78.25
2017-11-27T09:45:55.698Z,78.73
2017-11-27T09:48:21.869Z,78.91
2017-11-27T09:50:47.953Z,78.27
2017-11-27T09:53:14.138Z,77.74
2017-11-27T09:55:40.321Z,77.89
2017-11-27T09:58:06.436Z,78.01
2017-11-27T10:00:32.506Z,77.24
2017-11-27T10:02:58.626Z,77.80
2017-11-27T10:05:24.749Z,77.71
2017-11-27T10:07:50.833Z,77.99
2017-11-27T10:10:16.974Z,77.97
2017-11-27T10:12:43.090Z,77.36
2017-11-27T10:15:09.213Z,77.64
2017-11-27T10:17:35.322Z,77.79
2017-11-27T10:20:01.477Z,77.49
2017-11-27T10:22:27.584Z,77.42
2017-11-27T10:24:53.775Z,77.23
2017-11-27T10:27:19.904Z,77.02
2017-11-27T10:29:46.053Z,76.71
2017-11-27T10:32:12.194Z,76.94
2017-11-27T10:34:38.318Z,77.21
2017-11-27T10:37:04.464Z,76.90
2017-11-27T10:39:30.586Z,76.59
2017-11-27T10:41:56.692Z,76.64
2017-11-27T10:44:22.871Z,76.16
2017-11-27T10:46:49.021Z,76.23
2017-11-27T10:49:17.100Z,75.96
2017-11-27T10:51:43.234Z,76.36
2017-11-27T10:54:09.442Z,75.17
2017-11-27T10:56:35.603Z,75.29
2017-11-27T10:59:01.691Z,74.18
2017-11-27T11:01:27.834Z,74.64
2017-11-27T11:03:53.948Z,72.69
2017-11-27T11:06:20.127Z,72.15
2017-11-27T11:08:46.217Z,71.88
2017-11-27T11:11:12.423Z,72.49
2017-11-27T11:13:38.557Z,71.70
2017-11-27T11:16:04.656Z,72.05
2017-11-27T11:18:30.813Z,70.85
2017-11-27T11:20:56.896Z,71.65
2017-11-27T11:23:23.047Z,72.51
2017-11-27T11:25:49.136Z,73.34
2017-11-27T11:28:15.328Z,71.53
2017-11-27T11:30:41.497Z,72.32
2017-11-27T11:33:07.630Z,71.96
2017-11-27T11:35:33.742Z,72.28
2017-11-27T11:37:59.873Z,71.53
2017-11-27T11:40:25.977Z,71.26
2017-11-27T11:42:52.069Z,71.84
2017-11-27T11:45:18.148Z,71.87
2017-11-27T11:47:44.270Z,72.04
2017-11-27T11:50:10.371Z,71.87
2017-11-27T11:52:36.561Z,72.28
2017-11-27T11:55:02.921Z,72.35
2017-11-27T11:57:29.014Z,71.90
2017-11-27T11:59:55.089Z,72.31
2017-11-27T12:02:21.230Z,72.78
2017-11-27T12:04:47.446Z,73.17
2017-11-27T12:07:13.542Z,73.06
2017-11-27T12:09:39.662Z,72.83
2017-11-27T12:12:05.794Z,73.42
2017-11-27T12:14:31.890Z,72.62
2017-11-27T12:16:58.024Z,72.93
2017-11-27T12:19:24.173Z,73.07
2017-11-27T12:21:50.314Z,73.44
2017-11-27T12:24:16.381Z,73.31
2017-11-27T12:26:42.518Z,72.48
2017-11-27T12:29:08.758Z,72.38
2017-11-27T12:31:34.903Z,72.63
2017-11-27T12:34:01.041Z,72.27
2017-11-27T12:36:27.165Z,72.77
2017-11-27T12:38:53.349Z,73.16
2017-11-27T12:41:19.437Z,72.64
2017-11-27T12:43:45.521Z,72.61
2017-11-27T12:46:11.674Z,72.66
2017-11-27T12:48:37.845Z,72.67
2017-11-27T12:51:04.025Z,72.96
2017-11-27T12:53:30.170Z,73.10
2017-11-27T12:55:56.316Z,73.29
2017-11-27T12:58:22.442Z,73.52
2017-11-27T13:00:48.549Z,73.56
2017-11-27T13:03:14.666Z,73.92
2017-11-27T13:05:40.793Z,73.84
2017-11-27T13:08:06.889Z,73.93
2017-11-27T13:10:32.967Z,74.65
2017-11-27T13:12:59.062Z,74.76
2017-11-27T13:15:25.121Z,74.37
2017-11-27T13:17:51.243Z,74.68
2017-11-27T13:20:17.366Z,74.79
2017-11-27T13:22:43.586Z,74.79
2017-11-27T13:25:09.698Z,75.27
2017-11-27T13:27:35.829Z,75.45
2017-11-27T13:30:01.985Z,74.89
2017-11-27T13:32:28.145Z,75.02
2017-11-27T13:34:54.250Z,74.99
2017-11-27T13:37:20.361Z,75.18
2017-11-27T13:39:46.485Z,75.27
2017-11-27T13:42:12.613Z,75.41
2017-11-27T13:44:38.786Z,75.42
2017-11-27T13:47:04.894Z,75.59
2017-11-27T13:49:31.029Z,75.40
2017-11-27T13:51:57.805Z,75.96
2017-11-27T13:54:24.138Z,75.47
2017-11-27T13:56:50.224Z,75.47
2017-11-27T13:59:16.441Z,75.65
2017-11-27T14:01:42.533Z,76.05
2017-11-27T14:04:08.630Z,75.88
2017-11-27T14:06:34.791Z,76.32
2017-11-27T14:09:00.954Z,76.34
2017-11-27T14:11:27.082Z,76.94
2017-11-27T14:13:53.238Z,77.61
2017-11-27T14:16:19.386Z,77.54
2017-11-27T14:18:45.575Z,77.75
2017-11-27T14:21:11.718Z,78.20
2017-11-27T14:23:37.882Z,78.28
2017-11-27T14:26:03.987Z,79.07
2017-11-27T14:28:31.285Z,79.99
2017-11-27T14:30:57.347Z,80.61
2017-11-27T14:33:23.522Z,81.02
2017-11-27T14:35:49.614Z,81.59
2017-11-27T14:38:15.809Z,81.69
2017-11-27T14:40:41.913Z,82.07
2017-11-27T14:43:07.944Z,82.47
2017-11-27T14:45:34.037Z,82.85
2017-11-27T14:48:00.375Z,82.83
2017-11-27T14:50:26.490Z,82.78
2017-11-27T14:52:52.545Z,83.02
2017-11-27T14:55:19.004Z,83.67
2017-11-27T14:57:45.166Z,83.73
2017-11-27T15:00:11.222Z,83.99
2017-11-27T15:02:37.355Z,84.29
2017-11-27T15:05:04.285Z,84.86
2017-11-27T15:07:30.400Z,85.11
2017-11-27T15:09:56.488Z,85.19
2017-11-27T15:12:22.683Z,86.16
2017-11-27T15:14:48.771Z,86.16
2017-11-27T15:17:14.871Z,86.92
2017-11-27T15:19:40.999Z,86.86
2017-11-27T15:22:07.046Z,87.46
2017-11-27T15:24:33.857Z,87.56
2017-11-27T15:26:59.957Z,87.77
2017-11-27T15:29:26.099Z,88.40
2017-11-27T15:31:52.222Z,88.79
2017-11-27T15:34:18.421Z,88.56
2017-11-27T15:36:44.522Z,89.09
2017-11-27T15:39:10.691Z,89.52
2017-11-27T15:41:36.858Z,89.51
2017-11-27T15:44:02.973Z,89.96
2017-11-27T15:46:29.075Z,90.08
2017-11-27T15:48:55.154Z,90.29
2017-11-27T15:51:21.272Z,90.33
2017-11-27T15:53:47.435Z,90.77
2017-11-27T15:56:13.582Z,90.47
2017-11-27T15:58:39.741Z,90.78
2017-11-27T16:01:05.822Z,91.13
2017-11-27T16:03:32.083Z,91.08
2017-11-27T16:05:58.158Z,91.10
2017-11-27T16:08:24.286Z,91.21
2017-11-27T16:10:50.369Z,91.29
2017-11-27T16:13:16.507Z,91.27
2017-11-27T16:15:42.705Z,91.28
2017-11-27T16:18:08.794Z,91.53
2017-11-27T16:20:34.873Z,91.48
2017-11-27T16:23:01.017Z,91.56
2017-11-27T16:25:27.122Z,91.61
2017-11-27T16:27:53.247Z,91.69
2017-11-27T16:30:19.631Z,91.42
2017-11-27T16:32:45.741Z,91.63
2017-11-27T16:35:11.847Z,91.49
2017-11-27T16:37:37.868Z,91.36
2017-11-27T16:40:04.065Z,91.51
2017-11-27T16:42:30.261Z,91.50
2017-11-27T16:44:56.400Z,91.64
2017-11-27T16:47:22.562Z,91.39
2017-11-27T16:49:48.681Z,91.64
2017-11-27T16:52:14.891Z,91.54
2017-11-27T16:54:40.983Z,91.31
2017-11-27T16:57:07.201Z,91.57
2017-11-27T16:59:33.301Z,91.64
2017-11-27T17:02:00.403Z,91.53
2017-11-27T17:04:26.577Z,91.71
2017-11-27T17:06:52.726Z,91.71
2017-11-27T17:09:18.874Z,91.95
2017-11-27T17:11:44.964Z,91.77
2017-11-27T17:14:11.191Z,91.52
2017-11-27T17:16:38.245Z,91.60
2017-11-27T17:19:04.380Z,91.63
2017-11-27T17:21:30.499Z,91.66
2017-11-27T17:23:56.730Z,91.93
2017-11-27T17:26:22.827Z,91.66
2017-11-27T17:28:48.995Z,92.09
2017-11-27T17:31:15.137Z,91.77
2017-11-27T17:33:41.226Z,91.88
2017-11-27T17:36:07.388Z,91.91
2017-11-27T17:38:33.537Z,91.95
2017-11-27T17:40:59.980Z,91.69
2017-11-27T17:43:26.086Z,91.74
2017-11-27T17:45:52.271Z,91.97
2017-11-27T17:48:18.481Z,91.63
2017-11-27T17:50:45.120Z,91.68
2017-11-27T17:53:11.297Z,91.71
2017-11-27T17:55:37.456Z,91.96
2017-11-27T17:58:03.673Z,92.09
2017-11-27T18:00:29.822Z,91.98
2017-11-27T18:02:55.982Z,92.09
2017-11-27T18:05:22.087Z,91.87
2017-11-27T18:07:48.247Z,91.96
2017-11-27T18:10:14.420Z,91.79
2017-11-27T18:12:40.635Z,91.94
2017-11-27T18:15:06.880Z,91.84
2017-11-27T18:17:32.998Z,91.82
2017-11-27T18:19:59.115Z,91.55
2017-11-27T18:22:25.235Z,91.82
2017-11-27T18:24:51.366Z,91.77
2017-11-27T18:27:17.550Z,91.84
2017-11-27T18:29:43.670Z,92.15
2017-11-27T18:32:09.802Z,91.90
2017-11-27T18:34:35.988Z,92.04
2017-11-27T18:37:02.160Z,92.17
2017-11-27T18:39:28.356Z,92.29
2017-11-27T18:41:54.454Z,92.41
2017-11-27T18:44:20.568Z,92.29
2017-11-27T18:46:46.854Z,92.07
2017-11-27T18:49:13.006Z,92.09
2017-11-27T18:51:39.190Z,92.02
2017-11-27T18:54:05.336Z,92.15
2017-11-27T18:56:31.501Z,92.01
2017-11-27T18:58:57.668Z,92.28
2017-11-27T19:01:23.801Z,92.22
2017-11-27T19:03:49.897Z,92.24
2017-11-27T19:06:16.058Z,92.46
2017-11-27T19:08:42.261Z,92.55
2017-11-27T19:11:08.376Z,92.52
2017-11-27T19:13:34.488Z,92.70
2017-11-27T19:16:00.565Z,92.76
2017-11-27T19:18:26.667Z,92.60
2017-11-27T19:20:52.762Z,92.49
2017-11-27T19:23:18.879Z,92.60
2017-11-27T19:25:44.984Z,92.58
2017-11-27T19:28:11.102Z,92.51
2017-11-27T19:30:37.410Z,92.63
2017-11-27T19:33:03.526Z,92.78
2017-11-27T19:35:29.631Z,92.49
2017-11-27T19:37:55.840Z,92.54
2017-11-27T19:40:22.172Z,92.80
2017-11-27T19:42:48.504Z,92.81
2017-11-27T19:45:14.813Z,93.13
2017-11-27T19:47:41.053Z,92.90
2017-11-27T19:50:07.209Z,92.89
2017-11-27T19:52:33.375Z,93.00
2017-11-27T19:54:59.527Z,92.92
2017-11-27T19:57:25.762Z,92.95
2017-11-27T19:59:51.969Z,92.80
2017-11-27T20:02:18.151Z,92.84
2017-11-27T20:04:44.341Z,92.72
2017-11-27T20:07:10.467Z,92.91
2017-11-27T20:09:36.674Z,92.89
2017-11-27T20:12:02.949Z,93.00
2017-11-27T20:14:29.094Z,93.04
2017-11-27T20:16:55.335Z,92.96
2017-11-27T20:19:21.493Z,92.99
2017-11-27T20:21:47.826Z,92.86
2017-11-27T20:24:14.096Z,93.21
2017-11-27T20:26:40.325Z,93.09
2017-11-27T20:29:06.503Z,93.13
2017-11-27T20:31:32.789Z,93.35
2017-11-27T20:33:58.975Z,93.29
2017-11-27T20:36:25.223Z,93.59
2017-11-27T20:38:51.409Z,93.09
2017-11-27T20:41:17.645Z,93.42
2017-11-27T20:43:43.825Z,93.34
2017-11-27T20:46:10.139Z,93.46
2017-11-27T20:48:36.359Z,93.26
2017-11-27T20:51:02.627Z,93.46
2017-11-27T20:53:28.817Z,93.20
2017-11-27T20:55:55.001Z,93.60
2017-11-27T20:58:21.214Z,93.32
2017-11-27T21:00:47.425Z,93.17
2017-11-27T21:03:14.594Z,93.08
2017-11-27T21:05:40.665Z,93.55
2017-11-27T21:08:06.841Z,93.33
2017-11-27T21:10:32.910Z,93.04
2017-11-27T21:12:59.142Z,93.03
2017-11-27T21:15:25.234Z,93.09
2017-11-27T21:17:51.403Z,93.21
2017-11-27T21:20:17.544Z,93.19
2017-11-27T21:22:43.683Z,93.08
2017-11-27T21:25:09.850Z,93.17
2017-11-27T21:27:36.100Z,93.22
2017-11-27T21:30:02.820Z,93.35
2017-11-27T21:32:29.369Z,93.04
2017-11-27T21:34:55.502Z,93.16
2017-11-27T21:37:22.442Z,93.19
2017-11-27T21:39:48.591Z,93.32
2017-11-27T21:42:14.777Z,93.42
2017-11-27T21:44:40.978Z,93.15
2017-11-27T21:47:07.101Z,93.29
2017-11-27T21:49:33.225Z,93.05
2017-11-27T21:51:59.454Z,92.95
2017-11-27T21:54:25.698Z,93.12
2017-11-27T21:56:51.864Z,93.12
2017-11-27T21:59:18.270Z,93.20
2017-11-27T22:01:44.420Z,92.89
2017-11-27T22:04:10.839Z,93.15
2017-11-27T22:06:37.021Z,92.98
2017-11-27T22:09:03.256Z,93.14
2017-11-27T22:11:29.496Z,93.18
2017-11-27T22:13:55.661Z,92.74
2017-11-27T22:16:21.758Z,92.78
2017-11-27T22:18:47.921Z,92.77
2017-11-27T22:21:14.051Z,92.58
2017-11-27T22:23:40.253Z,92.76
2017-11-27T22:26:06.330Z,92.74
2017-11-27T22:28:32.419Z,92.68
2017-11-27T22:30:58.525Z,92.33
2017-11-27T22:33:24.761Z,92.68
2017-11-27T22:35:51.092Z,92.79
2017-11-27T22:38:17.245Z,92.62
2017-11-27T22:40:43.302Z,92.88
2017-11-27T22:43:09.416Z,92.82
2017-11-27T22:45:35.497Z,93.02
2017-11-27T22:48:01.889Z,92.75
2017-11-27T22:50:28.362Z,92.68
2017-11-27T22:52:54.518Z,92.79
2017-11-27T22:55:20.706Z,92.83
2017-11-27T22:57:46.803Z,92.39
2017-11-27T23:00:12.946Z,92.75
2017-11-27T23:02:39.183Z,92.94
2017-11-27T23:05:05.313Z,92.69
2017-11-27T23:07:31.489Z,92.79
2017-11-27T23:09:57.669Z,92.75
2017-11-27T23:12:23.827Z,92.77
2017-11-27T23:14:50.001Z,92.84
2017-11-27T23:17:16.248Z,93.08
2017-11-27T23:19:42.350Z,92.76
2017-11-27T23:22:08.506Z,92.57
2017-11-27T23:24:34.631Z,92.83
2017-11-27T23:27:00.833Z,93.08
2017-11-27T23:29:27.013Z,92.84
2017-11-27T23:31:53.213Z,93.06
2017-11-27T23:34:19.383Z,92.99
2017-11-27T23:36:45.538Z,93.21
2017-11-27T23:39:11.650Z,93.29
2017-11-27T23:41:37.794Z,92.90
2017-11-27T23:44:03.969Z,93.19
2017-11-27T23:46:30.078Z,93.29
2017-11-27T23:48:56.259Z,93.17
2017-11-27T23:51:22.358Z,93.33
2017-11-27T23:53:48.508Z,93.33
2017-11-27T23:56:14.589Z,93.69
2017-11-27T23:58:40.742Z,93.61
